Wellingborough, United Kingdom
Current Conditions -  °F | °C
As of 12:50 PM on Friday 24 Oct 2014 (Local Time) from EGTC Reporting Station
Broken Clouds Broken Clouds  
Wind Chill: 16°   Ceiling: 1600
Heat Index: 16°   Visibility: 6mi
Dew Point: 15°   Wind: 8mph
Humidity: 94%   Direction: 230°SW
Pressure: 29.91"   Gusts: NA
Location:  52.3°N, 0.69°W
Report Text: EGTC 241150Z 23007KT 9999 BKN016 16/15 Q1013
Loading
Personal Weather Stations






























Interactive Weather Map
Tropical Storm Tracking
New forecast layout! Learn more

10-Day Weather Forecast

Advertisements
Track Severe Weather on mobile